sensor_id;sensor_type;location;lat;lon;timestamp;P1;durP1;ratioP1;P2;durP2;ratioP2
8113;SDS011;4099;52.684;9.918;2023-03-26T00:04:09;6.80;;;5.83;;
8113;SDS011;4099;52.684;9.918;2023-03-26T00:09:12;10.97;;;6.50;;
8113;SDS011;4099;52.684;9.918;2023-03-26T00:14:14;11.50;;;6.53;;
8113;SDS011;4099;52.684;9.918;2023-03-26T00:19:16;15.67;;;6.50;;
8113;SDS011;4099;52.684;9.918;2023-03-26T00:24:19;11.60;;;5.97;;
8113;SDS011;4099;52.684;9.918;2023-03-26T00:29:28;9.67;;;5.80;;
8113;SDS011;4099;52.684;9.918;2023-03-26T00:34:32;8.90;;;5.30;;
8113;SDS011;4099;52.684;9.918;2023-03-26T00:39:36;12.63;;;5.07;;
8113;SDS011;4099;52.684;9.918;2023-03-26T00:44:38;9.23;;;4.97;;
8113;SDS011;4099;52.684;9.918;2023-03-26T00:49:40;9.10;;;4.60;;
8113;SDS011;4099;52.684;9.918;2023-03-26T00:54:43;13.40;;;5.17;;
8113;SDS011;4099;52.684;9.918;2023-03-26T00:59:45;11.70;;;4.97;;
8113;SDS011;4099;52.684;9.918;2023-03-26T01:04:49;9.53;;;4.10;;
8113;SDS011;4099;52.684;9.918;2023-03-26T01:09:57;5.97;;;3.20;;
8113;SDS011;4099;52.684;9.918;2023-03-26T01:15:00;7.57;;;3.57;;
8113;SDS011;4099;52.684;9.918;2023-03-26T01:20:06;6.80;;;3.10;;
8113;SDS011;4099;52.684;9.918;2023-03-26T01:25:15;7.27;;;3.03;;
8113;SDS011;4099;52.684;9.918;2023-03-26T01:30:18;6.57;;;3.13;;
8113;SDS011;4099;52.684;9.918;2023-03-26T01:35:29;8.20;;;2.47;;
8113;SDS011;4099;52.684;9.918;2023-03-26T01:40:41;5.20;;;2.50;;
8113;SDS011;4099;52.684;9.918;2023-03-26T01:45:48;4.77;;;2.20;;
8113;SDS011;4099;52.684;9.918;2023-03-26T01:50:52;8.70;;;2.33;;
8113;SDS011;4099;52.684;9.918;2023-03-26T01:55:58;10.60;;;3.00;;
8113;SDS011;4099;52.684;9.918;2023-03-26T02:01:13;8.53;;;2.20;;
8113;SDS011;4099;52.684;9.918;2023-03-26T02:06:26;8.50;;;2.40;;
8113;SDS011;4099;52.684;9.918;2023-03-26T02:11:34;6.67;;;2.30;;
8113;SDS011;4099;52.684;9.918;2023-03-26T02:16:38;4.80;;;2.07;;
8113;SDS011;4099;52.684;9.918;2023-03-26T02:21:40;6.00;;;2.37;;
8113;SDS011;4099;52.684;9.918;2023-03-26T02:26:44;5.63;;;2.30;;
8113;SDS011;4099;52.684;9.918;2023-03-26T02:31:46;5.20;;;2.53;;
8113;SDS011;4099;52.684;9.918;2023-03-26T02:36:48;10.63;;;2.97;;
8113;SDS011;4099;52.684;9.918;2023-03-26T02:41:51;4.83;;;2.87;;
8113;SDS011;4099;52.684;9.918;2023-03-26T02:46:54;5.87;;;2.53;;
8113;SDS011;4099;52.684;9.918;2023-03-26T02:52:16;7.20;;;2.83;;
8113;SDS011;4099;52.684;9.918;2023-03-26T02:57:21;6.33;;;2.40;;
8113;SDS011;4099;52.684;9.918;2023-03-26T03:02:45;7.33;;;2.77;;
8113;SDS011;4099;52.684;9.918;2023-03-26T03:08:12;9.03;;;3.03;;
8113;SDS011;4099;52.684;9.918;2023-03-26T03:13:29;6.27;;;2.60;;
8113;SDS011;4099;52.684;9.918;2023-03-26T03:18:30;6.77;;;2.73;;
8113;SDS011;4099;52.684;9.918;2023-03-26T03:23:33;7.00;;;3.47;;
8113;SDS011;4099;52.684;9.918;2023-03-26T03:28:46;8.87;;;2.77;;
8113;SDS011;4099;52.684;9.918;2023-03-26T03:33:49;8.70;;;2.67;;
8113;SDS011;4099;52.684;9.918;2023-03-26T03:38:51;8.70;;;3.30;;
8113;SDS011;4099;52.684;9.918;2023-03-26T03:43:57;7.60;;;2.70;;
8113;SDS011;4099;52.684;9.918;2023-03-26T03:49:02;9.70;;;3.10;;
8113;SDS011;4099;52.684;9.918;2023-03-26T03:54:09;4.10;;;2.13;;
8113;SDS011;4099;52.684;9.918;2023-03-26T03:59:35;5.43;;;2.30;;
8113;SDS011;4099;52.684;9.918;2023-03-26T04:04:40;4.37;;;1.77;;
8113;SDS011;4099;52.684;9.918;2023-03-26T04:09:47;5.17;;;2.40;;
8113;SDS011;4099;52.684;9.918;2023-03-26T04:14:54;6.53;;;2.33;;
8113;SDS011;4099;52.684;9.918;2023-03-26T04:19:56;8.07;;;2.80;;
8113;SDS011;4099;52.684;9.918;2023-03-26T04:25:05;6.07;;;2.40;;
8113;SDS011;4099;52.684;9.918;2023-03-26T04:30:21;5.97;;;2.30;;
8113;SDS011;4099;52.684;9.918;2023-03-26T04:35:31;5.30;;;2.43;;
8113;SDS011;4099;52.684;9.918;2023-03-26T04:40:35;6.47;;;2.30;;
8113;SDS011;4099;52.684;9.918;2023-03-26T04:45:39;6.47;;;1.90;;
8113;SDS011;4099;52.684;9.918;2023-03-26T04:50:42;5.47;;;2.30;;
8113;SDS011;4099;52.684;9.918;2023-03-26T04:55:48;4.07;;;1.93;;
8113;SDS011;4099;52.684;9.918;2023-03-26T05:01:12;3.03;;;1.90;;
8113;SDS011;4099;52.684;9.918;2023-03-26T05:06:18;4.27;;;2.10;;
8113;SDS011;4099;52.684;9.918;2023-03-26T05:11:21;6.53;;;1.97;;
8113;SDS011;4099;52.684;9.918;2023-03-26T05:16:24;5.03;;;2.30;;
8113;SDS011;4099;52.684;9.918;2023-03-26T05:21:31;7.50;;;2.70;;
8113;SDS011;4099;52.684;9.918;2023-03-26T05:26:33;5.50;;;2.40;;
8113;SDS011;4099;52.684;9.918;2023-03-26T05:31:38;4.67;;;2.10;;
8113;SDS011;4099;52.684;9.918;2023-03-26T05:36:40;5.33;;;2.00;;
8113;SDS011;4099;52.684;9.918;2023-03-26T05:42:09;5.33;;;2.67;;
8113;SDS011;4099;52.684;9.918;2023-03-26T05:47:29;3.90;;;1.80;;
8113;SDS011;4099;52.684;9.918;2023-03-26T05:52:31;4.37;;;1.97;;
8113;SDS011;4099;52.684;9.918;2023-03-26T05:58:02;2.80;;;2.20;;
8113;SDS011;4099;52.684;9.918;2023-03-26T06:03:25;7.60;;;2.40;;
8113;SDS011;4099;52.684;9.918;2023-03-26T06:08:39;4.43;;;2.27;;
8113;SDS011;4099;52.684;9.918;2023-03-26T06:13:42;2.37;;;1.60;;
8113;SDS011;4099;52.684;9.918;2023-03-26T06:18:46;5.20;;;2.23;;
8113;SDS011;4099;52.684;9.918;2023-03-26T06:24:13;4.50;;;2.03;;
8113;SDS011;4099;52.684;9.918;2023-03-26T06:29:46;6.00;;;2.17;;
8113;SDS011;4099;52.684;9.918;2023-03-26T06:35:09;3.53;;;1.77;;
8113;SDS011;4099;52.684;9.918;2023-03-26T06:40:12;5.93;;;2.50;;
8113;SDS011;4099;52.684;9.918;2023-03-26T06:45:28;6.90;;;2.97;;
8113;SDS011;4099;52.684;9.918;2023-03-26T06:50:51;4.00;;;2.27;;
8113;SDS011;4099;52.684;9.918;2023-03-26T06:56:25;8.97;;;4.50;;
8113;SDS011;4099;52.684;9.918;2023-03-26T07:01:56;6.63;;;4.60;;
8113;SDS011;4099;52.684;9.918;2023-03-26T07:07:28;10.20;;;4.70;;
8113;SDS011;4099;52.684;9.918;2023-03-26T07:12:57;4.77;;;2.60;;
8113;SDS011;4099;52.684;9.918;2023-03-26T07:18:30;7.53;;;3.50;;
8113;SDS011;4099;52.684;9.918;2023-03-26T07:23:36;6.07;;;2.77;;
8113;SDS011;4099;52.684;9.918;2023-03-26T07:29:02;8.03;;;3.30;;
8113;SDS011;4099;52.684;9.918;2023-03-26T07:34:32;9.03;;;2.83;;
8113;SDS011;4099;52.684;9.918;2023-03-26T07:39:53;13.63;;;4.50;;
8113;SDS011;4099;52.684;9.918;2023-03-26T07:45:18;10.77;;;3.67;;
8113;SDS011;4099;52.684;9.918;2023-03-26T07:50:36;6.00;;;3.40;;
8113;SDS011;4099;52.684;9.918;2023-03-26T07:55:46;7.80;;;3.10;;
8113;SDS011;4099;52.684;9.918;2023-03-26T08:01:11;8.40;;;3.47;;
8113;SDS011;4099;52.684;9.918;2023-03-26T08:06:22;6.67;;;3.23;;
8113;SDS011;4099;52.684;9.918;2023-03-26T08:11:53;9.00;;;2.80;;
8113;SDS011;4099;52.684;9.918;2023-03-26T08:16:59;7.70;;;2.90;;
8113;SDS011;4099;52.684;9.918;2023-03-26T08:22:07;8.90;;;2.47;;
8113;SDS011;4099;52.684;9.918;2023-03-26T08:27:17;9.10;;;3.33;;
8113;SDS011;4099;52.684;9.918;2023-03-26T08:32:23;9.53;;;2.97;;
8113;SDS011;4099;52.684;9.918;2023-03-26T08:37:25;8.43;;;3.47;;
8113;SDS011;4099;52.684;9.918;2023-03-26T08:42:38;12.30;;;5.07;;
8113;SDS011;4099;52.684;9.918;2023-03-26T08:48:19;6.90;;;3.17;;
8113;SDS011;4099;52.684;9.918;2023-03-26T08:53:52;10.73;;;3.00;;
8113;SDS011;4099;52.684;9.918;2023-03-26T08:59:40;14.57;;;8.63;;
8113;SDS011;4099;52.684;9.918;2023-03-26T09:11:12;13.00;;;9.47;;
8113;SDS011;4099;52.684;9.918;2023-03-26T09:16:38;7.50;;;3.43;;
8113;SDS011;4099;52.684;9.918;2023-03-26T09:27:47;10.97;;;7.07;;
8113;SDS011;4099;52.684;9.918;2023-03-26T09:38:50;9.17;;;3.23;;
8113;SDS011;4099;52.684;9.918;2023-03-26T09:49:29;6.73;;;2.47;;
8113;SDS011;4099;52.684;9.918;2023-03-26T10:00:37;6.27;;;2.33;;
8113;SDS011;4099;52.684;9.918;2023-03-26T10:05:50;6.20;;;2.50;;
8113;SDS011;4099;52.684;9.918;2023-03-26T10:10:58;8.30;;;2.70;;
8113;SDS011;4099;52.684;9.918;2023-03-26T10:16:09;5.53;;;2.63;;
8113;SDS011;4099;52.684;9.918;2023-03-26T10:21:21;11.10;;;4.60;;
8113;SDS011;4099;52.684;9.918;2023-03-26T10:26:36;5.30;;;3.10;;
8113;SDS011;4099;52.684;9.918;2023-03-26T10:31:45;5.43;;;2.50;;
8113;SDS011;4099;52.684;9.918;2023-03-26T10:36:54;5.13;;;2.70;;
8113;SDS011;4099;52.684;9.918;2023-03-26T10:42:08;5.93;;;2.33;;
8113;SDS011;4099;52.684;9.918;2023-03-26T10:47:25;5.30;;;2.93;;
8113;SDS011;4099;52.684;9.918;2023-03-26T10:52:36;5.77;;;2.80;;
8113;SDS011;4099;52.684;9.918;2023-03-26T10:57:44;6.63;;;2.50;;
8113;SDS011;4099;52.684;9.918;2023-03-26T11:03:10;5.07;;;2.30;;
8113;SDS011;4099;52.684;9.918;2023-03-26T11:08:28;6.27;;;2.20;;
8113;SDS011;4099;52.684;9.918;2023-03-26T11:13:38;7.20;;;3.03;;
8113;SDS011;4099;52.684;9.918;2023-03-26T11:18:48;7.27;;;2.90;;
8113;SDS011;4099;52.684;9.918;2023-03-26T11:23:57;7.37;;;4.00;;
8113;SDS011;4099;52.684;9.918;2023-03-26T11:34:47;5.67;;;1.97;;
8113;SDS011;4099;52.684;9.918;2023-03-26T11:39:57;6.97;;;2.63;;
8113;SDS011;4099;52.684;9.918;2023-03-26T11:45:03;6.90;;;3.57;;
8113;SDS011;4099;52.684;9.918;2023-03-26T11:50:14;6.17;;;3.53;;
8113;SDS011;4099;52.684;9.918;2023-03-26T11:55:19;6.03;;;2.93;;
8113;SDS011;4099;52.684;9.918;2023-03-26T12:00:22;5.73;;;3.10;;
8113;SDS011;4099;52.684;9.918;2023-03-26T12:05:27;8.17;;;3.33;;
8113;SDS011;4099;52.684;9.918;2023-03-26T12:10:33;5.57;;;3.10;;
8113;SDS011;4099;52.684;9.918;2023-03-26T12:15:41;7.03;;;3.43;;
8113;SDS011;4099;52.684;9.918;2023-03-26T12:20:45;6.80;;;3.00;;
8113;SDS011;4099;52.684;9.918;2023-03-26T12:25:48;7.70;;;3.00;;
8113;SDS011;4099;52.684;9.918;2023-03-26T12:31:12;6.23;;;3.17;;
8113;SDS011;4099;52.684;9.918;2023-03-26T12:36:22;8.00;;;3.40;;
8113;SDS011;4099;52.684;9.918;2023-03-26T12:41:32;9.47;;;3.53;;
8113;SDS011;4099;52.684;9.918;2023-03-26T12:46:36;8.03;;;3.47;;
8113;SDS011;4099;52.684;9.918;2023-03-26T12:51:42;6.13;;;3.83;;
8113;SDS011;4099;52.684;9.918;2023-03-26T12:56:50;7.57;;;3.33;;
8113;SDS011;4099;52.684;9.918;2023-03-26T13:02:10;6.77;;;2.70;;
8113;SDS011;4099;52.684;9.918;2023-03-26T13:07:35;5.10;;;2.97;;
8113;SDS011;4099;52.684;9.918;2023-03-26T13:12:52;6.10;;;2.73;;
8113;SDS011;4099;52.684;9.918;2023-03-26T13:18:04;5.67;;;2.70;;
8113;SDS011;4099;52.684;9.918;2023-03-26T13:23:22;6.23;;;2.60;;
8113;SDS011;4099;52.684;9.918;2023-03-26T13:28:35;6.53;;;2.77;;
8113;SDS011;4099;52.684;9.918;2023-03-26T13:33:47;4.43;;;2.20;;
8113;SDS011;4099;52.684;9.918;2023-03-26T13:39:01;4.77;;;2.27;;
8113;SDS011;4099;52.684;9.918;2023-03-26T13:44:14;7.73;;;2.57;;
8113;SDS011;4099;52.684;9.918;2023-03-26T13:49:28;6.73;;;3.10;;
8113;SDS011;4099;52.684;9.918;2023-03-26T13:54:38;7.80;;;3.63;;
8113;SDS011;4099;52.684;9.918;2023-03-26T13:59:46;9.00;;;2.57;;
8113;SDS011;4099;52.684;9.918;2023-03-26T14:04:50;5.47;;;2.07;;
8113;SDS011;4099;52.684;9.918;2023-03-26T14:09:58;5.43;;;2.00;;
8113;SDS011;4099;52.684;9.918;2023-03-26T14:15:05;4.47;;;2.33;;
8113;SDS011;4099;52.684;9.918;2023-03-26T14:20:22;4.53;;;1.70;;
8113;SDS011;4099;52.684;9.918;2023-03-26T14:25:48;6.37;;;2.50;;
8113;SDS011;4099;52.684;9.918;2023-03-26T14:31:04;8.00;;;2.33;;
8113;SDS011;4099;52.684;9.918;2023-03-26T14:36:26;6.47;;;1.80;;
8113;SDS011;4099;52.684;9.918;2023-03-26T14:41:57;3.07;;;2.00;;
8113;SDS011;4099;52.684;9.918;2023-03-26T14:47:10;6.63;;;2.10;;
8113;SDS011;4099;52.684;9.918;2023-03-26T14:52:16;5.83;;;2.57;;
8113;SDS011;4099;52.684;9.918;2023-03-26T14:57:42;4.93;;;2.33;;
8113;SDS011;4099;52.684;9.918;2023-03-26T15:15:00;8.60;;;3.13;;
8113;SDS011;4099;52.684;9.918;2023-03-26T15:20:39;8.27;;;2.70;;
8113;SDS011;4099;52.684;9.918;2023-03-26T15:38:09;14.60;;;7.43;;
8113;SDS011;4099;52.684;9.918;2023-03-26T15:49:06;5.50;;;2.37;;
8113;SDS011;4099;52.684;9.918;2023-03-26T15:54:16;8.63;;;3.10;;
8113;SDS011;4099;52.684;9.918;2023-03-26T15:59:27;9.30;;;4.43;;
8113;SDS011;4099;52.684;9.918;2023-03-26T16:04:40;18.73;;;6.33;;
8113;SDS011;4099;52.684;9.918;2023-03-26T16:09:50;18.77;;;8.73;;
8113;SDS011;4099;52.684;9.918;2023-03-26T16:20:33;9.00;;;3.87;;
8113;SDS011;4099;52.684;9.918;2023-03-26T16:25:52;17.73;;;7.43;;
8113;SDS011;4099;52.684;9.918;2023-03-26T16:31:15;17.83;;;5.00;;
8113;SDS011;4099;52.684;9.918;2023-03-26T16:36:25;19.47;;;7.83;;
8113;SDS011;4099;52.684;9.918;2023-03-26T16:41:33;13.67;;;5.73;;
8113;SDS011;4099;52.684;9.918;2023-03-26T16:46:56;8.60;;;3.70;;
8113;SDS011;4099;52.684;9.918;2023-03-26T16:52:05;7.37;;;3.70;;
8113;SDS011;4099;52.684;9.918;2023-03-26T16:57:23;9.97;;;2.97;;
8113;SDS011;4099;52.684;9.918;2023-03-26T17:02:28;8.70;;;2.70;;
8113;SDS011;4099;52.684;9.918;2023-03-26T17:07:37;16.53;;;7.73;;
8113;SDS011;4099;52.684;9.918;2023-03-26T17:12:49;17.33;;;9.30;;
8113;SDS011;4099;52.684;9.918;2023-03-26T17:17:58;15.67;;;7.13;;
8113;SDS011;4099;52.684;9.918;2023-03-26T17:23:16;12.80;;;6.30;;
8113;SDS011;4099;52.684;9.918;2023-03-26T17:28:31;14.43;;;5.03;;
8113;SDS011;4099;52.684;9.918;2023-03-26T17:33:51;14.67;;;7.37;;
8113;SDS011;4099;52.684;9.918;2023-03-26T17:39:00;16.27;;;7.67;;
8113;SDS011;4099;52.684;9.918;2023-03-26T17:44:28;17.53;;;6.47;;
8113;SDS011;4099;52.684;9.918;2023-03-26T17:49:38;12.90;;;6.10;;
8113;SDS011;4099;52.684;9.918;2023-03-26T17:54:43;18.53;;;8.70;;
8113;SDS011;4099;52.684;9.918;2023-03-26T17:59:46;18.70;;;7.47;;
8113;SDS011;4099;52.684;9.918;2023-03-26T18:04:50;25.33;;;9.27;;
8113;SDS011;4099;52.684;9.918;2023-03-26T18:15:24;13.97;;;5.30;;
8113;SDS011;4099;52.684;9.918;2023-03-26T18:20:32;28.97;;;11.97;;
8113;SDS011;4099;52.684;9.918;2023-03-26T18:25:38;23.43;;;9.07;;
8113;SDS011;4099;52.684;9.918;2023-03-26T18:30:43;20.20;;;10.60;;
8113;SDS011;4099;52.684;9.918;2023-03-26T18:35:49;19.07;;;8.43;;
8113;SDS011;4099;52.684;9.918;2023-03-26T18:40:55;16.67;;;7.67;;
8113;SDS011;4099;52.684;9.918;2023-03-26T18:45:58;13.03;;;6.70;;
8113;SDS011;4099;52.684;9.918;2023-03-26T18:51:01;15.53;;;7.13;;
8113;SDS011;4099;52.684;9.918;2023-03-26T18:56:19;20.87;;;9.00;;
8113;SDS011;4099;52.684;9.918;2023-03-26T19:01:29;8.30;;;3.47;;
8113;SDS011;4099;52.684;9.918;2023-03-26T19:06:33;10.43;;;4.03;;
8113;SDS011;4099;52.684;9.918;2023-03-26T19:11:41;13.77;;;5.17;;
8113;SDS011;4099;52.684;9.918;2023-03-26T19:16:44;8.40;;;5.40;;
8113;SDS011;4099;52.684;9.918;2023-03-26T19:21:49;10.57;;;3.53;;
8113;SDS011;4099;52.684;9.918;2023-03-26T19:26:56;9.50;;;3.33;;
8113;SDS011;4099;52.684;9.918;2023-03-26T19:32:01;8.53;;;3.53;;
8113;SDS011;4099;52.684;9.918;2023-03-26T19:37:15;6.03;;;2.80;;
8113;SDS011;4099;52.684;9.918;2023-03-26T19:42:20;12.37;;;5.13;;
8113;SDS011;4099;52.684;9.918;2023-03-26T19:47:29;8.77;;;3.30;;
8113;SDS011;4099;52.684;9.918;2023-03-26T19:52:39;10.07;;;2.77;;
8113;SDS011;4099;52.684;9.918;2023-03-26T19:57:42;11.33;;;4.00;;
8113;SDS011;4099;52.684;9.918;2023-03-26T20:02:44;10.67;;;2.63;;
8113;SDS011;4099;52.684;9.918;2023-03-26T20:07:46;6.27;;;2.33;;
8113;SDS011;4099;52.684;9.918;2023-03-26T20:12:50;6.50;;;1.90;;
8113;SDS011;4099;52.684;9.918;2023-03-26T20:17:52;7.03;;;3.37;;
8113;SDS011;4099;52.684;9.918;2023-03-26T20:22:54;6.07;;;2.70;;
8113;SDS011;4099;52.684;9.918;2023-03-26T20:27:58;7.63;;;4.03;;
8113;SDS011;4099;52.684;9.918;2023-03-26T20:33:00;7.80;;;3.97;;
8113;SDS011;4099;52.684;9.918;2023-03-26T20:38:02;9.27;;;4.73;;
8113;SDS011;4099;52.684;9.918;2023-03-26T20:43:08;9.80;;;2.87;;
8113;SDS011;4099;52.684;9.918;2023-03-26T20:48:12;9.53;;;3.13;;
8113;SDS011;4099;52.684;9.918;2023-03-26T20:53:14;9.07;;;3.60;;
8113;SDS011;4099;52.684;9.918;2023-03-26T20:58:19;7.13;;;2.50;;
8113;SDS011;4099;52.684;9.918;2023-03-26T21:03:21;5.40;;;2.70;;
8113;SDS011;4099;52.684;9.918;2023-03-26T21:08:23;9.70;;;2.10;;
8113;SDS011;4099;52.684;9.918;2023-03-26T21:13:32;14.90;;;4.60;;
8113;SDS011;4099;52.684;9.918;2023-03-26T21:18:39;24.57;;;10.50;;
8113;SDS011;4099;52.684;9.918;2023-03-26T21:23:42;7.57;;;4.07;;
8113;SDS011;4099;52.684;9.918;2023-03-26T21:28:56;6.07;;;2.57;;
8113;SDS011;4099;52.684;9.918;2023-03-26T21:33:58;6.17;;;1.80;;
8113;SDS011;4099;52.684;9.918;2023-03-26T21:39:01;4.73;;;1.60;;
8113;SDS011;4099;52.684;9.918;2023-03-26T21:44:06;3.47;;;1.10;;
8113;SDS011;4099;52.684;9.918;2023-03-26T21:49:08;2.47;;;1.40;;
8113;SDS011;4099;52.684;9.918;2023-03-26T21:54:15;6.73;;;1.57;;
8113;SDS011;4099;52.684;9.918;2023-03-26T21:59:25;4.87;;;1.30;;
8113;SDS011;4099;52.684;9.918;2023-03-26T22:04:35;4.67;;;1.63;;
8113;SDS011;4099;52.684;9.918;2023-03-26T22:09:42;6.40;;;1.40;;
8113;SDS011;4099;52.684;9.918;2023-03-26T22:14:46;3.70;;;1.50;;
8113;SDS011;4099;52.684;9.918;2023-03-26T22:19:48;5.47;;;2.30;;
8113;SDS011;4099;52.684;9.918;2023-03-26T22:24:50;6.93;;;1.43;;
8113;SDS011;4099;52.684;9.918;2023-03-26T22:29:53;4.60;;;1.33;;
8113;SDS011;4099;52.684;9.918;2023-03-26T22:34:55;5.53;;;1.83;;
8113;SDS011;4099;52.684;9.918;2023-03-26T22:39:57;11.07;;;2.17;;
8113;SDS011;4099;52.684;9.918;2023-03-26T22:45:01;7.47;;;2.30;;
8113;SDS011;4099;52.684;9.918;2023-03-26T22:50:04;4.87;;;1.63;;
8113;SDS011;4099;52.684;9.918;2023-03-26T22:55:08;7.03;;;1.60;;
8113;SDS011;4099;52.684;9.918;2023-03-26T23:00:12;3.60;;;1.20;;
8113;SDS011;4099;52.684;9.918;2023-03-26T23:05:15;5.17;;;1.40;;
8113;SDS011;4099;52.684;9.918;2023-03-26T23:10:17;3.87;;;1.10;;
8113;SDS011;4099;52.684;9.918;2023-03-26T23:15:22;6.10;;;1.13;;
8113;SDS011;4099;52.684;9.918;2023-03-26T23:20:25;6.50;;;2.20;;
8113;SDS011;4099;52.684;9.918;2023-03-26T23:25:28;6.33;;;1.10;;
8113;SDS011;4099;52.684;9.918;2023-03-26T23:30:31;7.07;;;1.37;;
8113;SDS011;4099;52.684;9.918;2023-03-26T23:35:33;8.57;;;1.70;;
8113;SDS011;4099;52.684;9.918;2023-03-26T23:40:35;4.07;;;1.00;;
8113;SDS011;4099;52.684;9.918;2023-03-26T23:45:38;5.27;;;1.20;;
8113;SDS011;4099;52.684;9.918;2023-03-26T23:50:40;4.70;;;1.80;;
8113;SDS011;4099;52.684;9.918;2023-03-26T23:55:43;6.73;;;1.40;;
